createdAt,value
2019-03-10T00:02:06.222Z,98433.00
2019-03-10T00:04:35.383Z,98432.00
2019-03-10T00:07:04.456Z,98430.00
2019-03-10T00:09:33.541Z,98421.00
2019-03-10T00:12:02.668Z,98423.00
2019-03-10T00:14:31.757Z,98425.00
2019-03-10T00:17:00.823Z,98419.00
2019-03-10T00:19:29.986Z,98419.00
2019-03-10T00:21:58.966Z,98412.00
2019-03-10T00:24:28.110Z,98397.00
2019-03-10T00:26:57.120Z,98413.00
2019-03-10T00:29:26.104Z,98407.00
2019-03-10T00:31:55.258Z,98406.00
2019-03-10T00:34:24.599Z,98403.00
2019-03-10T00:36:53.761Z,98404.00
2019-03-10T00:40:13.053Z,98407.00
2019-03-10T00:43:07.650Z,98390.00
2019-03-10T00:46:13.347Z,98373.00
2019-03-10T00:49:13.622Z,98357.00
2019-03-10T00:52:04.851Z,98360.00
2019-03-10T00:54:33.935Z,98369.00
2019-03-10T00:57:03.392Z,98371.00
2019-03-10T00:59:33.032Z,98369.00
2019-03-10T01:02:02.084Z,98366.00
2019-03-10T01:04:31.147Z,98366.00
2019-03-10T01:07:01.641Z,98360.00
2019-03-10T01:09:30.958Z,98359.00
2019-03-10T01:12:00.111Z,98347.00
2019-03-10T01:14:29.399Z,98353.00
2019-03-10T01:16:58.523Z,98363.00
2019-03-10T01:19:27.660Z,98360.00
2019-03-10T01:21:57.089Z,98360.00
2019-03-10T01:24:26.299Z,98347.00
2019-03-10T01:26:55.375Z,98342.00
2019-03-10T01:29:24.538Z,98354.00
2019-03-10T01:32:53.078Z,98334.00
2019-03-10T01:35:35.334Z,98328.00
2019-03-10T01:38:04.342Z,98313.00
2019-03-10T01:40:33.963Z,98313.00
2019-03-10T01:43:03.216Z,98310.00
2019-03-10T01:45:32.192Z,98297.00
2019-03-10T01:48:01.342Z,98294.00
2019-03-10T01:50:30.409Z,98285.00
2019-03-10T01:52:59.502Z,98288.00
2019-03-10T01:55:28.629Z,98273.00
2019-03-10T01:57:57.746Z,98275.00
2019-03-10T02:00:26.812Z,98264.00
2019-03-10T02:02:55.879Z,98280.00
2019-03-10T02:05:25.101Z,98232.00
2019-03-10T02:07:54.331Z,98253.00
2019-03-10T02:10:23.393Z,98252.00
2019-03-10T02:12:52.456Z,98235.00
2019-03-10T02:15:21.657Z,98242.00
2019-03-10T02:17:50.712Z,98226.00
2019-03-10T02:20:19.725Z,98232.00
2019-03-10T02:22:49.102Z,98235.00
2019-03-10T02:25:18.185Z,98235.00
2019-03-10T02:27:47.426Z,98232.00
2019-03-10T02:30:19.275Z,98228.00
2019-03-10T02:32:48.591Z,98231.00
2019-03-10T02:35:17.774Z,98228.00
2019-03-10T02:37:46.850Z,98224.00
2019-03-10T02:40:16.297Z,98212.00
2019-03-10T02:42:45.341Z,98191.00
2019-03-10T02:45:14.601Z,98197.00
2019-03-10T02:47:43.820Z,98201.00
2019-03-10T02:50:13.043Z,98197.00
2019-03-10T02:52:42.042Z,98193.00
2019-03-10T02:55:11.203Z,98183.00
2019-03-10T02:57:40.405Z,98173.00
2019-03-10T03:00:11.081Z,98165.00
2019-03-10T03:02:40.083Z,98162.00
2019-03-10T03:05:09.906Z,98150.00
2019-03-10T03:07:39.074Z,98151.00
2019-03-10T03:10:09.979Z,98154.00
2019-03-10T03:12:39.068Z,98136.00
2019-03-10T03:15:08.756Z,98128.00
2019-03-10T03:17:37.892Z,98123.00
2019-03-10T03:20:07.768Z,98116.00
2019-03-10T03:22:37.037Z,98114.00
2019-03-10T03:25:06.690Z,98107.00
2019-03-10T03:27:35.750Z,98116.00
2019-03-10T03:30:05.740Z,98116.00
2019-03-10T03:32:35.150Z,98135.00
2019-03-10T03:35:04.379Z,98127.00
2019-03-10T03:37:33.607Z,98136.00
2019-03-10T03:40:02.816Z,98115.00
2019-03-10T03:42:32.051Z,98109.00
2019-03-10T03:45:01.294Z,98116.00
2019-03-10T03:47:30.480Z,98098.00
2019-03-10T03:49:59.636Z,98106.00
2019-03-10T03:52:28.721Z,98107.00
2019-03-10T03:54:57.782Z,98104.00
2019-03-10T03:57:27.177Z,98092.00
2019-03-10T03:59:56.309Z,98095.00
2019-03-10T04:02:43.883Z,98089.00
2019-03-10T04:05:13.039Z,98077.00
2019-03-10T04:07:42.259Z,98061.00
2019-03-10T04:10:11.338Z,98051.00
2019-03-10T04:12:40.497Z,98056.00
2019-03-10T04:15:09.713Z,98065.00
2019-03-10T04:17:38.873Z,98058.00
2019-03-10T04:20:08.169Z,98048.00
2019-03-10T04:22:37.242Z,98038.00
2019-03-10T04:25:06.711Z,98030.00
2019-03-10T04:27:35.812Z,98039.00
2019-03-10T04:30:05.332Z,98031.00
2019-03-10T04:32:34.415Z,98030.00
2019-03-10T04:35:03.648Z,98021.00
2019-03-10T04:37:32.961Z,98012.00
2019-03-10T04:40:02.114Z,98010.00
2019-03-10T04:42:31.194Z,98009.00
2019-03-10T04:45:00.473Z,97992.00
2019-03-10T04:47:30.086Z,97992.00
2019-03-10T04:49:59.090Z,97983.00
2019-03-10T04:52:28.178Z,97978.00
2019-03-10T04:55:14.852Z,97975.00
2019-03-10T04:58:02.613Z,97970.00
2019-03-10T05:00:32.779Z,97959.00
2019-03-10T05:03:01.866Z,97941.00
2019-03-10T05:05:31.081Z,97924.00
2019-03-10T05:08:00.553Z,97913.00
2019-03-10T05:10:29.726Z,97915.00
2019-03-10T05:12:58.831Z,97896.00
2019-03-10T05:15:28.072Z,97890.00
2019-03-10T05:17:57.316Z,97885.00
2019-03-10T05:20:26.491Z,97876.00
2019-03-10T05:23:30.576Z,97872.00
2019-03-10T05:25:59.730Z,97868.00
2019-03-10T05:28:29.708Z,97856.00
2019-03-10T05:30:58.962Z,97858.00
2019-03-10T05:33:28.094Z,97840.00
2019-03-10T05:35:57.525Z,97834.00
2019-03-10T05:38:26.611Z,97837.00
2019-03-10T05:40:55.839Z,97827.00
2019-03-10T05:43:25.071Z,97828.00
2019-03-10T05:45:54.290Z,97816.00
2019-03-10T05:48:23.508Z,97812.00
2019-03-10T05:50:52.728Z,97810.00
2019-03-10T05:53:21.869Z,97808.00
2019-03-10T05:55:51.138Z,97808.00
2019-03-10T05:58:20.323Z,97795.00
2019-03-10T06:00:49.518Z,97802.00
2019-03-10T06:03:18.730Z,97804.00
2019-03-10T06:05:48.059Z,97798.00
2019-03-10T06:08:17.242Z,97797.00
2019-03-10T06:10:46.357Z,97796.00
2019-03-10T06:13:15.661Z,97790.00
2019-03-10T06:15:44.988Z,97774.00
2019-03-10T06:18:14.276Z,97778.00
2019-03-10T06:20:43.692Z,97781.00
2019-03-10T06:23:12.781Z,97768.00
2019-03-10T06:25:41.934Z,97766.00
2019-03-10T06:28:11.426Z,97766.00
2019-03-10T06:30:40.663Z,97765.00
2019-03-10T06:33:09.909Z,97754.00
2019-03-10T06:35:39.001Z,97755.00
2019-03-10T06:38:08.398Z,97755.00
2019-03-10T06:40:37.584Z,97758.00
2019-03-10T06:43:06.703Z,97765.00
2019-03-10T06:45:35.699Z,97749.00
2019-03-10T06:48:04.785Z,97745.00
2019-03-10T06:50:33.870Z,97735.00
2019-03-10T06:53:02.967Z,97736.00
2019-03-10T06:55:32.176Z,97726.00
2019-03-10T06:58:01.259Z,97717.00
2019-03-10T07:00:30.386Z,97717.00
2019-03-10T07:02:59.549Z,97707.00
2019-03-10T07:05:29.013Z,97706.00
2019-03-10T07:07:58.156Z,97700.00
2019-03-10T07:10:27.237Z,97692.00
2019-03-10T07:12:56.255Z,97680.00
2019-03-10T07:15:25.386Z,97670.00
2019-03-10T07:17:54.840Z,97668.00
2019-03-10T07:20:24.310Z,97651.00
2019-03-10T07:22:53.363Z,97644.00
2019-03-10T07:25:22.424Z,97633.00
2019-03-10T07:28:06.453Z,97633.00
2019-03-10T07:30:54.469Z,97622.00
2019-03-10T07:33:30.033Z,97629.00
2019-03-10T07:36:21.518Z,97613.00
2019-03-10T07:38:59.874Z,97611.00
2019-03-10T07:41:44.334Z,97611.00
2019-03-10T07:44:19.355Z,97603.00
2019-03-10T07:47:07.451Z,97590.00
2019-03-10T07:49:45.311Z,97582.00
2019-03-10T07:52:39.613Z,97576.00
2019-03-10T07:55:19.445Z,97568.00
2019-03-10T07:58:10.493Z,97565.00
2019-03-10T08:00:49.889Z,97559.00
2019-03-10T08:03:41.228Z,97548.00
2019-03-10T08:06:35.552Z,97563.00
2019-03-10T08:09:21.543Z,97543.00
2019-03-10T08:12:00.815Z,97543.00
2019-03-10T08:14:52.043Z,97539.00
2019-03-10T08:17:26.981Z,97533.00
2019-03-10T08:20:24.526Z,97533.00
2019-03-10T08:23:10.542Z,97516.00
2019-03-10T08:26:01.893Z,97503.00
2019-03-10T08:28:53.244Z,97513.00
2019-03-10T08:31:50.703Z,97516.00
2019-03-10T08:34:31.267Z,97483.00
2019-03-10T08:37:15.251Z,97513.00
2019-03-10T08:39:55.200Z,97511.00
2019-03-10T08:42:44.181Z,97498.00
2019-03-10T08:45:20.151Z,97488.00
2019-03-10T08:48:08.495Z,97478.00
2019-03-10T08:51:02.962Z,97470.00
2019-03-10T08:53:57.576Z,97472.00
2019-03-10T08:56:49.594Z,97464.00
2019-03-10T08:59:44.019Z,97454.00
2019-03-10T09:02:35.225Z,97453.00
2019-03-10T09:05:23.799Z,97440.00
2019-03-10T09:08:02.165Z,97426.00
2019-03-10T09:10:48.369Z,97429.00
2019-03-10T09:13:47.474Z,97425.00
2019-03-10T09:16:25.964Z,97421.00
2019-03-10T09:19:14.304Z,97408.00
2019-03-10T09:21:55.610Z,97397.00
2019-03-10T09:25:02.091Z,97384.00
2019-03-10T09:27:59.388Z,97390.00
2019-03-10T09:30:40.831Z,97371.00
2019-03-10T09:33:19.117Z,97369.00
2019-03-10T09:36:22.961Z,97356.00
2019-03-10T09:39:29.729Z,97353.00
2019-03-10T09:42:33.225Z,97332.00
2019-03-10T09:45:17.675Z,97333.00
2019-03-10T09:48:05.779Z,97325.00
2019-03-10T09:50:54.370Z,97324.00
2019-03-10T09:53:54.662Z,97301.00
2019-03-10T09:56:45.596Z,97313.00
2019-03-10T09:59:32.413Z,97303.00
2019-03-10T10:02:20.860Z,97296.00
2019-03-10T10:05:00.326Z,97290.00
2019-03-10T10:07:43.143Z,97283.00
2019-03-10T10:10:19.418Z,97290.00
2019-03-10T10:13:10.434Z,97279.00
2019-03-10T10:15:57.591Z,97279.00
2019-03-10T10:18:43.423Z,97278.00
2019-03-10T10:21:31.666Z,97281.00
2019-03-10T10:24:29.096Z,97271.00
2019-03-10T10:27:26.475Z,97256.00
2019-03-10T10:30:23.975Z,97247.00
2019-03-10T10:33:23.262Z,97244.00
2019-03-10T10:36:26.896Z,97243.00
2019-03-10T10:39:15.036Z,97228.00
2019-03-10T10:42:28.394Z,97221.00
2019-03-10T10:45:19.460Z,97210.00
2019-03-10T10:48:07.562Z,97201.00
2019-03-10T10:51:01.870Z,97205.00
2019-03-10T10:53:50.133Z,97205.00
2019-03-10T10:56:38.650Z,97193.00
2019-03-10T10:59:33.110Z,97179.00
2019-03-10T11:02:08.326Z,97167.00
2019-03-10T11:04:56.515Z,97169.00
2019-03-10T11:07:48.059Z,97170.00
2019-03-10T11:10:48.771Z,97161.00
2019-03-10T11:13:36.859Z,97154.00
2019-03-10T11:16:17.032Z,97142.00
2019-03-10T11:19:12.128Z,97130.00
2019-03-10T11:21:50.514Z,97133.00
2019-03-10T11:24:48.972Z,97133.00
2019-03-10T11:27:39.906Z,97120.00
2019-03-10T11:30:31.394Z,97124.00
2019-03-10T11:33:28.463Z,97124.00
2019-03-10T11:36:16.039Z,97129.00
2019-03-10T11:39:02.722Z,97120.00
2019-03-10T11:41:48.129Z,97106.00
2019-03-10T11:44:39.501Z,97114.00
2019-03-10T11:47:45.896Z,97109.00
2019-03-10T11:50:37.020Z,97106.00
2019-03-10T11:53:19.780Z,97102.00
2019-03-10T11:56:15.231Z,97101.00
2019-03-10T11:59:06.354Z,97075.00
2019-03-10T12:01:42.804Z,97072.00
2019-03-10T12:04:34.351Z,97071.00
2019-03-10T12:09:18.312Z,97042.00
2019-03-10T12:11:47.841Z,97049.00
2019-03-10T12:14:17.593Z,97044.00
2019-03-10T12:16:46.680Z,97038.00
2019-03-10T12:19:16.030Z,97039.00
2019-03-10T12:21:45.689Z,97017.00
2019-03-10T12:24:15.073Z,97027.00
2019-03-10T12:26:44.639Z,97049.00
2019-03-10T12:29:13.911Z,97062.00
2019-03-10T12:31:43.226Z,97088.00
2019-03-10T12:34:12.392Z,97101.00
2019-03-10T12:36:41.538Z,97093.00
2019-03-10T12:39:10.726Z,97101.00
2019-03-10T12:41:40.018Z,97078.00
2019-03-10T12:44:09.340Z,97080.00
2019-03-10T12:46:38.872Z,97048.00
2019-03-10T12:49:08.078Z,97068.00
2019-03-10T12:51:37.518Z,97073.00
2019-03-10T12:54:09.505Z,97066.00
2019-03-10T12:56:40.745Z,97065.00
2019-03-10T12:59:09.862Z,97097.00
2019-03-10T13:01:39.208Z,97097.00
2019-03-10T13:04:08.880Z,97098.00
2019-03-10T13:06:37.982Z,97079.00
2019-03-10T13:09:08.672Z,97110.00
2019-03-10T13:11:38.134Z,97106.00
2019-03-10T13:14:07.431Z,97106.00
2019-03-10T13:16:36.975Z,97097.00
2019-03-10T13:19:06.215Z,97095.00
2019-03-10T13:21:35.515Z,97080.00
2019-03-10T13:24:04.752Z,97099.00
2019-03-10T13:26:33.999Z,97099.00
2019-03-10T13:29:03.896Z,97116.00
2019-03-10T13:31:33.216Z,97095.00
2019-03-10T13:34:02.400Z,97112.00
2019-03-10T13:36:31.681Z,97099.00
2019-03-10T13:39:00.844Z,97100.00
2019-03-10T13:41:30.178Z,97089.00
2019-03-10T13:43:59.346Z,97103.00
2019-03-10T13:46:28.854Z,97135.00
2019-03-10T13:48:58.045Z,97166.00
2019-03-10T13:51:27.432Z,97145.00
2019-03-10T13:53:56.806Z,97104.00
2019-03-10T13:56:26.063Z,97091.00
2019-03-10T13:58:55.350Z,97101.00
2019-03-10T14:01:24.691Z,97090.00
2019-03-10T14:03:53.777Z,97092.00
2019-03-10T14:06:23.326Z,97092.00
2019-03-10T14:08:52.900Z,97105.00
2019-03-10T14:11:22.237Z,97127.00
2019-03-10T14:13:51.655Z,97111.00
2019-03-10T14:16:20.919Z,97113.00
2019-03-10T14:18:50.607Z,97114.00
2019-03-10T14:21:20.481Z,97132.00
2019-03-10T14:23:49.709Z,97116.00
2019-03-10T14:26:18.956Z,97104.00
2019-03-10T14:28:48.263Z,97124.00
2019-03-10T14:31:17.444Z,97141.00
2019-03-10T14:33:46.855Z,97139.00
2019-03-10T14:36:16.190Z,97134.00
2019-03-10T14:38:45.675Z,97135.00
2019-03-10T14:41:14.892Z,97146.00
2019-03-10T14:43:44.291Z,97158.00
2019-03-10T14:46:13.738Z,97148.00
2019-03-10T14:48:42.964Z,97152.00
2019-03-10T14:51:16.400Z,97153.00
2019-03-10T14:53:45.734Z,97162.00
2019-03-10T14:56:14.882Z,97160.00
2019-03-10T14:58:44.212Z,97170.00
2019-03-10T15:01:13.782Z,97136.00
2019-03-10T15:03:43.962Z,97130.00
2019-03-10T15:06:13.166Z,97130.00
2019-03-10T15:08:42.531Z,97127.00
2019-03-10T15:11:15.050Z,97150.00
2019-03-10T15:13:44.440Z,97140.00
2019-03-10T15:16:13.525Z,97143.00
2019-03-10T15:18:42.957Z,97173.00
2019-03-10T15:21:12.278Z,97143.00
2019-03-10T15:23:41.502Z,97167.00
2019-03-10T15:26:10.531Z,97160.00
2019-03-10T15:28:40.137Z,97168.00
2019-03-10T15:31:09.582Z,97175.00
2019-03-10T15:33:39.402Z,97169.00
2019-03-10T15:36:19.521Z,97177.00
2019-03-10T15:38:40.079Z,97178.00
2019-03-10T15:41:09.449Z,97188.00
2019-03-10T15:43:38.773Z,97188.00
2019-03-10T15:46:08.177Z,97204.00
2019-03-10T15:48:37.589Z,97203.00
2019-03-10T15:51:07.433Z,97213.00
2019-03-10T15:53:36.701Z,97221.00
2019-03-10T15:56:05.849Z,97213.00
2019-03-10T15:58:35.577Z,97224.00
2019-03-10T16:01:04.743Z,97228.00
2019-03-10T16:03:34.085Z,97249.00
2019-03-10T16:06:03.471Z,97228.00
2019-03-10T16:08:32.760Z,97244.00
2019-03-10T16:11:02.773Z,97248.00
2019-03-10T16:13:32.093Z,97246.00
2019-03-10T16:16:01.241Z,97270.00
2019-03-10T16:18:30.477Z,97259.00
2019-03-10T16:20:59.652Z,97277.00
2019-03-10T16:23:28.743Z,97264.00
2019-03-10T16:25:57.905Z,97278.00
2019-03-10T16:28:28.257Z,97278.00
2019-03-10T16:30:57.638Z,97309.00
2019-03-10T16:33:27.299Z,97308.00
2019-03-10T16:35:56.473Z,97303.00
2019-03-10T16:38:26.834Z,97315.00
2019-03-10T16:40:58.379Z,97320.00
2019-03-10T16:43:28.566Z,97318.00
2019-03-10T16:45:58.080Z,97344.00
2019-03-10T16:48:27.543Z,97328.00
2019-03-10T16:50:56.756Z,97354.00
2019-03-10T16:53:26.776Z,97371.00
2019-03-10T16:56:02.917Z,97357.00
2019-03-10T16:58:27.787Z,97375.00
2019-03-10T17:00:57.052Z,97391.00
2019-03-10T17:03:26.719Z,97390.00
2019-03-10T17:05:56.011Z,97397.00
2019-03-10T17:08:25.261Z,97392.00
2019-03-10T17:10:54.725Z,97405.00
2019-03-10T17:13:23.971Z,97414.00
2019-03-10T17:15:53.641Z,97416.00
2019-03-10T17:18:23.336Z,97428.00
2019-03-10T17:20:54.150Z,97434.00
2019-03-10T17:23:23.580Z,97443.00
2019-03-10T17:25:52.864Z,97430.00
2019-03-10T17:28:22.185Z,97455.00
2019-03-10T17:30:51.439Z,97488.00
2019-03-10T17:33:20.793Z,97484.00
2019-03-10T17:35:50.070Z,97485.00
2019-03-10T17:38:19.494Z,97501.00
2019-03-10T17:40:48.755Z,97523.00
2019-03-10T17:43:18.050Z,97525.00
2019-03-10T17:45:47.249Z,97545.00
2019-03-10T17:48:16.733Z,97546.00
2019-03-10T17:50:46.013Z,97550.00
2019-03-10T17:53:15.730Z,97558.00
2019-03-10T17:55:45.075Z,97565.00
2019-03-10T17:58:14.238Z,97578.00
2019-03-10T18:00:43.678Z,97587.00
2019-03-10T18:03:12.730Z,97594.00
2019-03-10T18:05:41.895Z,97598.00
2019-03-10T18:08:11.354Z,97611.00
2019-03-10T18:10:40.476Z,97617.00
2019-03-10T18:13:10.104Z,97608.00
2019-03-10T18:15:39.623Z,97606.00
2019-03-10T18:18:09.010Z,97619.00
2019-03-10T18:20:38.732Z,97612.00
2019-03-10T18:23:08.440Z,97637.00
2019-03-10T18:25:37.919Z,97613.00
2019-03-10T18:28:07.108Z,97617.00
2019-03-10T18:30:37.805Z,97633.00
2019-03-10T18:33:06.990Z,97646.00
2019-03-10T18:35:36.401Z,97637.00
2019-03-10T18:38:05.974Z,97652.00
2019-03-10T18:40:35.352Z,97657.00
2019-03-10T18:43:04.999Z,97670.00
2019-03-10T18:45:34.476Z,97677.00
2019-03-10T18:48:03.717Z,97677.00
2019-03-10T18:50:32.857Z,97669.00
2019-03-10T18:53:02.372Z,97662.00
2019-03-10T18:55:31.962Z,97687.00
2019-03-10T18:58:02.306Z,97682.00
2019-03-10T19:00:31.918Z,97694.00
2019-03-10T19:03:01.453Z,97701.00
2019-03-10T19:05:30.877Z,97727.00
2019-03-10T19:08:00.407Z,97735.00
2019-03-10T19:10:30.000Z,97744.00
2019-03-10T19:12:59.984Z,97765.00
2019-03-10T19:15:29.384Z,97765.00
2019-03-10T19:18:01.569Z,97777.00
2019-03-10T19:20:31.356Z,97788.00
2019-03-10T19:23:00.861Z,97815.00
2019-03-10T19:25:30.065Z,97845.00
2019-03-10T19:27:59.415Z,97899.00
2019-03-10T19:30:28.659Z,97892.00
2019-03-10T19:32:57.892Z,97926.00
2019-03-10T19:35:27.253Z,97936.00
2019-03-10T19:37:58.043Z,97955.00
2019-03-10T19:40:33.604Z,97966.00
2019-03-10T19:43:03.063Z,97960.00
2019-03-10T19:45:32.992Z,97968.00
2019-03-10T19:48:03.757Z,97972.00
2019-03-10T19:50:33.155Z,97971.00
2019-03-10T19:53:05.329Z,97983.00
2019-03-10T19:55:35.097Z,97978.00
2019-03-10T19:58:04.520Z,97954.00
2019-03-10T20:00:33.789Z,97982.00
2019-03-10T20:03:02.958Z,97974.00
2019-03-10T20:05:32.253Z,97982.00
2019-03-10T20:08:01.399Z,97990.00
2019-03-10T20:10:30.662Z,97998.00
2019-03-10T20:12:59.897Z,98003.00
2019-03-10T20:15:29.508Z,97998.00
2019-03-10T20:17:58.659Z,98012.00
2019-03-10T20:20:30.667Z,98006.00
2019-03-10T20:23:01.184Z,98011.00
2019-03-10T20:25:30.666Z,98024.00
2019-03-10T20:27:59.801Z,98025.00
2019-03-10T20:30:29.071Z,98030.00
2019-03-10T20:32:58.312Z,98006.00
2019-03-10T20:35:28.723Z,98032.00
2019-03-10T20:37:58.277Z,98022.00
2019-03-10T20:40:27.991Z,98018.00
2019-03-10T20:42:57.252Z,98049.00
2019-03-10T20:45:26.481Z,98066.00
2019-03-10T20:47:56.819Z,98045.00
2019-03-10T20:50:26.269Z,98054.00
2019-03-10T20:52:55.681Z,98063.00
2019-03-10T20:55:24.928Z,98063.00
2019-03-10T20:57:54.081Z,98066.00
2019-03-10T21:00:23.530Z,98095.00
2019-03-10T21:02:53.074Z,98087.00
2019-03-10T21:05:22.152Z,98094.00
2019-03-10T21:07:51.638Z,98097.00
2019-03-10T21:10:20.836Z,98110.00
2019-03-10T21:12:50.241Z,98116.00
2019-03-10T21:15:19.440Z,98116.00
2019-03-10T21:17:48.674Z,98126.00
2019-03-10T21:20:17.987Z,98107.00
2019-03-10T21:22:47.573Z,98136.00
2019-03-10T21:25:19.058Z,98140.00
2019-03-10T21:27:48.157Z,98148.00
2019-03-10T21:30:19.319Z,98143.00
2019-03-10T21:32:48.647Z,98149.00
2019-03-10T21:35:18.453Z,98172.00
2019-03-10T21:37:47.712Z,98174.00
2019-03-10T21:40:18.859Z,98180.00
2019-03-10T21:42:48.105Z,98185.00
2019-03-10T21:45:17.337Z,98193.00
2019-03-10T21:47:46.590Z,98203.00
2019-03-10T21:50:15.829Z,98205.00
2019-03-10T21:52:45.186Z,98217.00
2019-03-10T21:55:14.394Z,98228.00
2019-03-10T21:57:43.474Z,98210.00
2019-03-10T22:00:13.182Z,98222.00
2019-03-10T22:02:42.782Z,98235.00
2019-03-10T22:05:12.316Z,98234.00
2019-03-10T22:07:41.407Z,98230.00
2019-03-10T22:10:10.668Z,98248.00
2019-03-10T22:12:39.985Z,98255.00
2019-03-10T22:15:10.950Z,98267.00
2019-03-10T22:17:40.131Z,98252.00
2019-03-10T22:20:12.113Z,98261.00
2019-03-10T22:22:48.471Z,98253.00
2019-03-10T22:25:13.256Z,98280.00
2019-03-10T22:27:45.347Z,98272.00
2019-03-10T22:30:14.989Z,98289.00
2019-03-10T22:32:44.538Z,98295.00
2019-03-10T22:35:13.768Z,98291.00
2019-03-10T22:37:42.865Z,98297.00
2019-03-10T22:40:12.136Z,98299.00
2019-03-10T22:42:41.557Z,98304.00
2019-03-10T22:45:11.384Z,98299.00
2019-03-10T22:47:40.554Z,98309.00
2019-03-10T22:50:10.787Z,98311.00
2019-03-10T22:52:40.027Z,98314.00
2019-03-10T22:55:09.579Z,98302.00
2019-03-10T22:57:38.735Z,98317.00
2019-03-10T23:00:15.677Z,98328.00
2019-03-10T23:02:44.841Z,98333.00
2019-03-10T23:05:14.077Z,98342.00
2019-03-10T23:07:43.178Z,98339.00
2019-03-10T23:10:13.032Z,98342.00
2019-03-10T23:12:42.343Z,98351.00
2019-03-10T23:15:11.884Z,98348.00
2019-03-10T23:17:40.943Z,98350.00
2019-03-10T23:20:11.623Z,98347.00
2019-03-10T23:22:40.691Z,98348.00
2019-03-10T23:25:10.143Z,98344.00
2019-03-10T23:27:39.300Z,98347.00
2019-03-10T23:30:10.070Z,98363.00
2019-03-10T23:32:39.351Z,98350.00
2019-03-10T23:35:08.629Z,98370.00
2019-03-10T23:37:37.865Z,98373.00
2019-03-10T23:40:07.593Z,98376.00
2019-03-10T23:42:36.848Z,98386.00
2019-03-10T23:45:06.279Z,98382.00
2019-03-10T23:47:35.629Z,98406.00
2019-03-10T23:50:05.310Z,98400.00
2019-03-10T23:52:34.514Z,98397.00
2019-03-10T23:55:03.876Z,98418.00
2019-03-10T23:57:33.038Z,98418.00
